Time;durP1;ratioP1;P1;durP2;ratioP2;P2;SDS_P1;SDS_P2;PMS_P1;PMS_P2;Temp;Humidity;BMP_temperature;BMP_pressure;BME280_temperature;BME280_humidity;BME280_pressure;Samples;Min_cycle;Max_cycle;Signal;HPM_P1;HPM_P2
2021/05/13 00:00:33;;;;;;;25.87;15.57;;;12.40;99.90;;;;;;5059714;28;20542;-84
2021/05/13 00:02:59;;;;;;;28.97;17.67;;;12.30;99.90;;;;;;5053180;28;20536;-83
2021/05/13 00:05:25;;;;;;;26.80;16.50;;;12.20;99.90;;;;;;5060155;28;20539;-84
2021/05/13 00:07:52;;;;;;;27.00;17.33;;;12.20;99.90;;;;;;5059548;28;20454;-84
2021/05/13 00:10:20;;;;;;;28.60;15.73;;;12.10;99.90;;;;;;5060676;28;20586;-85
2021/05/13 00:12:51;;;;;;;26.90;16.07;;;12.10;99.90;;;;;;5059578;28;20843;-84
2021/05/13 00:15:20;;;;;;;28.57;15.77;;;12.00;99.90;;;;;;5061665;28;20467;-83
2021/05/13 00:17:46;;;;;;;24.17;15.33;;;12.00;99.90;;;;;;5059952;28;20451;-84
2021/05/13 00:20:16;;;;;;;28.67;15.90;;;11.90;99.90;;;;;;5060570;28;20480;-83
2021/05/13 00:22:43;;;;;;;26.83;17.90;;;11.90;99.90;;;;;;5060658;28;20450;-84
2021/05/13 00:25:10;;;;;;;24.87;15.80;;;11.90;99.90;;;;;;5063137;28;20460;-85
2021/05/13 00:27:36;;;;;;;29.43;16.23;;;11.80;99.90;;;;;;5067743;28;20456;-82
2021/05/13 00:30:05;;;;;;;27.47;16.73;;;11.80;99.90;;;;;;5063852;28;20571;-84
2021/05/13 00:32:31;;;;;;;28.50;17.70;;;11.80;99.90;;;;;;5064002;28;20468;-83
2021/05/13 00:34:57;;;;;;;32.27;16.93;;;11.70;99.90;;;;;;5066421;28;20527;-84
2021/05/13 00:37:24;;;;;;;30.00;18.00;;;11.70;99.90;;;;;;5072343;28;20498;-83
2021/05/13 00:39:50;;;;;;;30.77;18.43;;;11.70;99.90;;;;;;5071449;28;20532;-84
2021/05/13 00:42:16;;;;;;;25.60;17.03;;;11.60;99.90;;;;;;5068632;28;20486;-83
2021/05/13 00:44:43;;;;;;;29.13;18.33;;;11.60;99.90;;;;;;5068325;28;20547;-83
2021/05/13 00:47:12;;;;;;;28.40;18.20;;;11.60;99.90;;;;;;5066166;28;20483;-83
2021/05/13 00:49:38;;;;;;;25.70;18.00;;;11.60;99.90;;;;;;5064384;28;20495;-83
2021/05/13 00:52:07;;;;;;;26.73;18.47;;;11.70;99.90;;;;;;5065034;28;20504;-83
2021/05/13 00:54:33;;;;;;;30.17;18.50;;;11.70;99.90;;;;;;5059848;28;20458;-84
2021/05/13 00:57:00;;;;;;;27.07;18.73;;;11.70;99.90;;;;;;5057596;28;20436;-83
2021/05/13 00:59:28;;;;;;;26.57;18.83;;;11.70;99.90;;;;;;5057895;28;20479;-82
2021/05/13 01:01:55;;;;;;;28.30;17.57;;;11.70;99.90;;;;;;5058131;28;20798;-84
2021/05/13 01:04:22;;;;;;;28.63;18.53;;;11.70;99.90;;;;;;5058074;28;20987;-82
2021/05/13 01:06:50;;;;;;;25.27;18.33;;;11.70;99.90;;;;;;5058154;28;20452;-82
2021/05/13 01:09:21;;;;;;;28.40;18.43;;;11.70;99.90;;;;;;5057487;28;20523;-82
2021/05/13 01:11:51;;;;;;;27.30;18.50;;;11.70;99.90;;;;;;5057398;28;20460;-83
2021/05/13 01:14:21;;;;;;;29.00;18.67;;;11.70;99.90;;;;;;5057935;28;20516;-83
2021/05/13 01:16:56;;;;;;;32.80;18.73;;;11.80;99.90;;;;;;5057792;28;20452;-83
2021/05/13 01:19:23;;;;;;;28.20;18.27;;;11.70;99.90;;;;;;5061646;28;20468;-83
2021/05/13 01:21:51;;;;;;;27.90;19.37;;;11.70;99.90;;;;;;5056382;28;20482;-82
2021/05/13 01:24:17;;;;;;;31.00;19.93;;;11.70;99.90;;;;;;5056888;28;20440;-82
2021/05/13 01:26:45;;;;;;;28.73;20.03;;;11.80;99.90;;;;;;5056001;28;20456;-83
2021/05/13 01:29:12;;;;;;;25.90;17.63;;;11.80;99.90;;;;;;5056796;28;20491;-83
2021/05/13 01:31:39;;;;;;;28.60;17.97;;;11.70;99.90;;;;;;5056142;28;20866;-83
2021/05/13 01:34:06;;;;;;;24.80;16.73;;;11.80;99.90;;;;;;5057457;28;20444;-83
2021/05/13 01:36:33;;;;;;;30.40;21.00;;;11.80;99.90;;;;;;5056921;28;20460;-83
2021/05/13 01:39:00;;;;;;;30.20;18.40;;;11.70;99.90;;;;;;5056114;28;20474;-83
2021/05/13 01:41:27;;;;;;;28.63;17.77;;;11.70;99.90;;;;;;5056410;28;20448;-82
2021/05/13 01:43:53;;;;;;;32.73;18.77;;;11.70;99.90;;;;;;5056721;28;20471;-83
2021/05/13 01:46:19;;;;;;;24.73;17.73;;;11.70;99.90;;;;;;5057086;28;20497;-84
2021/05/13 01:48:46;;;;;;;30.47;20.80;;;11.70;99.90;;;;;;5056089;28;20491;-83
2021/05/13 01:51:12;;;;;;;27.53;18.73;;;11.70;99.90;;;;;;5056254;28;20479;-82
2021/05/13 01:53:40;;;;;;;28.70;21.33;;;11.70;99.90;;;;;;5056283;28;20452;-83
2021/05/13 01:56:08;;;;;;;30.60;19.80;;;11.70;99.90;;;;;;5056623;28;20534;-82
2021/05/13 01:58:36;;;;;;;29.40;20.40;;;11.80;99.90;;;;;;5056503;28;20856;-83
2021/05/13 02:01:02;;;;;;;33.10;22.40;;;11.80;99.90;;;;;;5055422;28;20515;-82
2021/05/13 02:03:29;;;;;;;32.47;20.67;;;11.80;99.90;;;;;;5056364;28;20535;-83
2021/05/13 02:05:55;;;;;;;28.73;19.60;;;11.70;99.90;;;;;;5056386;28;20479;-83
2021/05/13 02:08:21;;;;;;;30.70;19.93;;;11.70;99.90;;;;;;5056628;28;20533;-83
2021/05/13 02:10:48;;;;;;;30.90;19.10;;;11.70;99.90;;;;;;5056312;28;20452;-83
2021/05/13 02:13:15;;;;;;;26.83;18.83;;;11.60;99.90;;;;;;5056217;28;20911;-83
2021/05/13 02:15:41;;;;;;;27.20;18.40;;;11.60;99.90;;;;;;5056580;28;20501;-82
2021/05/13 02:18:08;;;;;;;33.03;21.07;;;11.50;99.90;;;;;;5056341;28;20455;-83
2021/05/13 02:20:35;;;;;;;29.70;21.70;;;11.40;99.90;;;;;;5057265;28;20864;-82
2021/05/13 02:23:01;;;;;;;37.73;20.80;;;11.30;99.90;;;;;;5056212;28;20963;-82
2021/05/13 02:25:31;;;;;;;29.73;21.10;;;11.20;99.90;;;;;;5056172;28;20531;-82
2021/05/13 02:27:57;;;;;;;31.63;21.60;;;11.10;99.90;;;;;;5056245;28;20459;-83
2021/05/13 02:30:25;;;;;;;30.23;21.73;;;11.00;99.90;;;;;;5057048;28;20479;-82
2021/05/13 02:32:51;;;;;;;31.37;21.00;;;10.90;99.90;;;;;;5056210;28;20491;-83
2021/05/13 02:35:17;;;;;;;36.40;23.63;;;10.80;99.90;;;;;;5066489;28;20535;-83
2021/05/13 02:37:44;;;;;;;33.80;23.63;;;10.70;99.90;;;;;;5075206;28;20510;-85
2021/05/13 02:40:12;;;;;;;36.40;25.13;;;10.70;99.90;;;;;;5075539;28;20476;-84
2021/05/13 02:42:39;;;;;;;37.63;25.37;;;10.60;99.90;;;;;;5075006;28;20459;-84
2021/05/13 02:45:07;;;;;;;36.30;25.57;;;10.60;99.90;;;;;;5075279;28;20471;-84
2021/05/13 02:47:34;;;;;;;37.17;23.80;;;10.60;99.90;;;;;;5075462;28;20442;-83
2021/05/13 02:50:01;;;;;;;40.40;25.80;;;10.50;99.90;;;;;;5075419;28;20509;-81
2021/05/13 02:52:27;;;;;;;35.70;25.47;;;10.50;99.90;;;;;;5068967;28;20456;-83
2021/05/13 02:54:53;;;;;;;35.83;24.60;;;10.40;99.90;;;;;;5058113;28;20921;-83
2021/05/13 02:57:20;;;;;;;38.20;25.83;;;10.40;99.90;;;;;;5057596;28;20538;-83
2021/05/13 02:59:47;;;;;;;35.40;25.80;;;10.30;99.90;;;;;;5037468;28;20496;-83
2021/05/13 03:02:14;;;;;;;34.90;26.10;;;10.30;99.90;;;;;;5055396;28;20459;-83
2021/05/13 03:04:43;;;;;;;38.50;27.67;;;10.20;99.90;;;;;;5059561;28;20456;-83
2021/05/13 03:07:10;;;;;;;41.70;26.60;;;10.20;99.90;;;;;;5061755;28;20454;-83
2021/05/13 03:09:39;;;;;;;37.90;26.53;;;10.10;99.90;;;;;;5061173;28;20513;-83
2021/05/13 03:12:06;;;;;;;42.43;26.90;;;10.10;99.90;;;;;;5061410;28;20463;-83
2021/05/13 03:14:33;;;;;;;37.90;25.70;;;10.10;99.90;;;;;;5060871;28;20917;-83
2021/05/13 03:17:00;;;;;;;36.00;25.03;;;10.10;99.90;;;;;;5063481;28;20519;-83
2021/05/13 03:19:31;;;;;;;36.17;25.27;;;10.00;99.90;;;;;;5061540;28;20460;-83
2021/05/13 03:22:02;;;;;;;35.17;25.33;;;10.00;99.90;;;;;;5060281;28;20448;-85
2021/05/13 03:24:32;;;;;;;33.30;23.73;;;9.90;99.90;;;;;;5060936;28;20464;-83
2021/05/13 03:27:09;;;;;;;38.43;25.50;;;9.90;99.90;;;;;;5052042;28;20935;-83
2021/05/13 03:29:35;;;;;;;31.87;23.40;;;9.90;99.90;;;;;;5058629;28;20479;-83
2021/05/13 03:32:02;;;;;;;30.83;22.33;;;9.90;99.90;;;;;;5059681;28;20967;-82
2021/05/13 03:34:28;;;;;;;35.23;25.50;;;9.90;99.90;;;;;;5057465;28;20509;-83
2021/05/13 03:36:54;;;;;;;30.53;22.47;;;9.80;99.90;;;;;;5060144;28;20456;-83
2021/05/13 03:39:22;;;;;;;37.20;23.97;;;9.80;99.90;;;;;;5057203;28;20531;-83
2021/05/13 03:41:48;;;;;;;32.60;23.57;;;9.80;99.90;;;;;;5059404;28;21240;-83
2021/05/13 03:44:14;;;;;;;32.80;24.10;;;9.80;99.90;;;;;;5060260;28;20451;-82
2021/05/13 03:46:40;;;;;;;32.97;23.53;;;9.70;99.90;;;;;;5059090;28;20513;-82
2021/05/13 03:49:07;;;;;;;33.40;24.17;;;9.80;99.90;;;;;;5060157;28;20495;-82
2021/05/13 03:51:33;;;;;;;34.93;23.53;;;9.70;99.90;;;;;;5058561;28;20839;-82
2021/05/13 03:53:59;;;;;;;33.03;23.63;;;9.70;99.90;;;;;;5059710;28;20452;-82
2021/05/13 03:56:26;;;;;;;30.97;22.03;;;9.80;99.90;;;;;;5058609;28;20823;-82
2021/05/13 03:58:56;;;;;;;29.37;21.53;;;9.70;99.90;;;;;;5057976;28;20498;-82
2021/05/13 04:01:41;;;;;;;36.97;24.63;;;9.80;99.90;;;;;;5041921;28;20467;-82
2021/05/13 04:04:07;;;;;;;28.60;22.10;;;9.70;99.90;;;;;;5059795;28;20462;-82
2021/05/13 04:06:34;;;;;;;30.17;20.83;;;9.70;99.90;;;;;;5059410;28;20562;-83
2021/05/13 04:09:00;;;;;;;30.87;23.20;;;9.70;99.90;;;;;;5058932;28;20865;-82
2021/05/13 04:11:27;;;;;;;27.50;20.93;;;9.70;99.90;;;;;;5058415;28;20543;-82
2021/05/13 04:13:54;;;;;;;31.00;21.47;;;9.80;99.90;;;;;;5059201;28;20440;-82
2021/05/13 04:16:26;;;;;;;28.10;20.80;;;9.70;99.90;;;;;;5058609;28;20460;-82
2021/05/13 04:18:53;;;;;;;31.47;20.53;;;9.70;99.90;;;;;;5059102;28;20480;-83
2021/05/13 04:21:19;;;;;;;31.17;21.10;;;9.70;99.90;;;;;;5057700;28;20452;-82
2021/05/13 04:23:46;;;;;;;30.20;21.00;;;9.80;99.90;;;;;;5059150;28;20456;-82
2021/05/13 04:26:12;;;;;;;31.27;22.50;;;9.80;99.90;;;;;;5058236;28;20448;-82
2021/05/13 04:28:39;;;;;;;32.43;21.60;;;9.80;99.90;;;;;;5058668;28;20476;-82
2021/05/13 04:31:06;;;;;;;30.17;21.50;;;9.80;99.90;;;;;;5059206;28;20456;-84
2021/05/13 04:33:32;;;;;;;34.00;22.30;;;9.80;99.90;;;;;;5060402;28;20462;-84
2021/05/13 04:35:59;;;;;;;31.60;22.20;;;9.80;99.90;;;;;;5060890;28;21027;-84
2021/05/13 04:38:25;;;;;;;30.10;20.33;;;9.80;99.90;;;;;;5061804;28;20486;-84
2021/05/13 04:40:52;;;;;;;31.10;21.80;;;9.90;99.90;;;;;;5062545;28;21047;-84
2021/05/13 04:43:19;;;;;;;33.27;22.60;;;9.70;99.90;;;;;;5059321;28;20535;-82
2021/05/13 04:45:47;;;;;;;31.90;22.13;;;9.90;99.90;;;;;;5050427;28;20443;-82
2021/05/13 04:48:16;;;;;;;28.83;19.67;;;9.90;99.90;;;;;;5056443;28;20468;-81
2021/05/13 04:50:42;;;;;;;32.97;22.30;;;9.90;99.90;;;;;;5058858;28;20514;-83
2021/05/13 04:53:09;;;;;;;26.40;19.00;;;9.90;99.90;;;;;;5058889;28;20460;-83
2021/05/13 04:55:38;;;;;;;30.23;20.20;;;9.90;99.90;;;;;;5058396;28;20440;-84
2021/05/13 04:58:05;;;;;;;32.23;20.57;;;10.00;99.90;;;;;;5058132;28;20505;-84
2021/05/13 05:00:32;;;;;;;27.93;19.30;;;10.10;99.90;;;;;;5058438;28;20519;-84
2021/05/13 05:02:59;;;;;;;27.30;20.00;;;10.10;99.90;;;;;;5057005;28;20444;-83
2021/05/13 05:05:25;;;;;;;31.03;20.43;;;10.10;99.90;;;;;;5058367;28;21055;-82
2021/05/13 05:07:53;;;;;;;30.00;20.40;;;10.20;99.90;;;;;;5058142;28;20439;-83
2021/05/13 05:10:23;;;;;;;28.70;21.37;;;10.30;99.90;;;;;;5057873;28;20475;-84
2021/05/13 05:12:49;;;;;;;28.73;21.60;;;10.30;99.90;;;;;;5057801;28;20475;-83
2021/05/13 05:15:15;;;;;;;32.10;21.27;;;10.40;99.90;;;;;;5057700;28;20447;-83
2021/05/13 05:17:47;;;;;;;29.00;22.33;;;10.40;99.90;;;;;;5058468;28;20444;-84
2021/05/13 05:20:15;;;;;;;25.20;19.77;;;10.50;99.90;;;;;;5055544;28;20499;-82
2021/05/13 05:22:42;;;;;;;30.13;22.13;;;10.50;99.90;;;;;;5057206;28;20448;-84
2021/05/13 05:25:08;;;;;;;28.30;21.00;;;10.50;99.90;;;;;;5058453;28;21807;-83
2021/05/13 05:27:35;;;;;;;29.00;21.10;;;10.60;99.90;;;;;;5054746;28;20448;-82
2021/05/13 05:30:01;;;;;;;35.07;22.37;;;10.70;99.90;;;;;;5057647;28;20567;-82
2021/05/13 05:32:28;;;;;;;31.47;22.00;;;10.80;99.90;;;;;;5056062;28;20444;-83
2021/05/13 05:34:54;;;;;;;36.87;21.27;;;10.80;99.90;;;;;;5057807;28;20450;-82
2021/05/13 05:37:21;;;;;;;32.37;21.50;;;10.90;99.90;;;;;;5058041;28;20452;-84
2021/05/13 05:39:47;;;;;;;31.33;20.53;;;11.00;99.90;;;;;;5058301;28;20819;-83
2021/05/13 05:42:14;;;;;;;32.63;21.33;;;11.00;99.90;;;;;;5057549;28;20460;-83
2021/05/13 05:44:40;;;;;;;31.03;21.70;;;11.20;99.90;;;;;;5057627;28;20527;-83
2021/05/13 05:47:06;;;;;;;35.10;23.70;;;11.30;99.90;;;;;;5057586;28;20457;-82
2021/05/13 05:49:33;;;;;;;28.83;19.20;;;11.40;99.90;;;;;;5058096;28;20491;-83
2021/05/13 05:52:02;;;;;;;28.57;20.50;;;11.50;99.90;;;;;;5060792;28;21046;-83
2021/05/13 05:54:29;;;;;;;30.67;21.40;;;11.60;99.90;;;;;;5063192;28;20448;-83
2021/05/13 05:56:55;;;;;;;29.37;20.10;;;11.70;99.90;;;;;;5062209;28;20540;-83
2021/05/13 05:59:22;;;;;;;29.87;20.27;;;11.70;99.90;;;;;;5062817;28;20541;-83
2021/05/13 06:01:51;;;;;;;32.80;22.40;;;11.90;99.90;;;;;;5061507;28;20456;-83
2021/05/13 06:04:17;;;;;;;31.70;21.90;;;11.90;99.90;;;;;;5062697;28;20448;-82
2021/05/13 06:06:44;;;;;;;28.17;21.20;;;12.00;99.90;;;;;;5058859;28;20950;-83
2021/05/13 06:09:10;;;;;;;33.30;23.00;;;12.10;99.90;;;;;;5059454;28;20488;-82
2021/05/13 06:11:37;;;;;;;29.97;21.47;;;12.20;99.90;;;;;;5056731;28;21024;-83
2021/05/13 06:14:04;;;;;;;29.57;20.20;;;12.30;99.90;;;;;;5058825;28;20461;-83
2021/05/13 06:16:31;;;;;;;29.20;20.60;;;12.30;99.90;;;;;;5056055;28;20530;-83
2021/05/13 06:18:58;;;;;;;28.77;20.30;;;12.40;99.90;;;;;;5055408;28;20480;-84
2021/05/13 06:21:26;;;;;;;27.90;20.40;;;12.50;99.90;;;;;;5049195;28;20517;-82
2021/05/13 06:23:55;;;;;;;29.00;21.93;;;12.70;99.90;;;;;;5054083;28;20435;-84
2021/05/13 06:26:26;;;;;;;31.80;23.90;;;12.70;99.90;;;;;;5056865;28;20809;-84
2021/05/13 06:28:59;;;;;;;30.47;22.80;;;12.80;99.90;;;;;;5049226;28;20542;-83
2021/05/13 06:31:25;;;;;;;36.70;24.33;;;12.90;99.90;;;;;;5054681;28;20943;-83
2021/05/13 06:33:51;;;;;;;39.20;25.57;;;12.90;99.90;;;;;;5057284;28;20451;-83
2021/05/13 06:36:18;;;;;;;36.33;26.63;;;13.00;99.90;;;;;;5057995;28;20502;-83
2021/05/13 06:38:46;;;;;;;37.97;26.27;;;13.10;99.90;;;;;;5059267;28;20521;-84
2021/05/13 06:41:13;;;;;;;38.30;27.03;;;13.20;99.90;;;;;;5063377;28;20511;-86
2021/05/13 06:43:39;;;;;;;40.77;26.63;;;13.20;99.90;;;;;;5062300;28;20516;-85
2021/05/13 06:46:07;;;;;;;39.57;27.40;;;13.40;99.90;;;;;;5064191;28;20542;-85
2021/05/13 06:48:34;;;;;;;33.13;23.17;;;13.40;99.90;;;;;;5063836;28;20484;-86
2021/05/13 06:51:00;;;;;;;38.70;25.03;;;13.50;99.90;;;;;;5065906;28;20808;-86
2021/05/13 06:53:27;;;;;;;33.07;21.80;;;13.70;99.90;;;;;;5065410;28;20852;-85
2021/05/13 06:55:53;;;;;;;31.00;22.00;;;13.80;99.90;;;;;;5064068;28;20456;-85
2021/05/13 06:58:20;;;;;;;30.53;21.17;;;13.90;99.90;;;;;;5059891;28;20881;-85
2021/05/13 07:00:47;;;;;;;30.63;20.57;;;14.10;99.90;;;;;;5051399;28;20467;-86
2021/05/13 07:03:15;;;;;;;33.90;22.00;;;14.30;99.90;;;;;;5064201;28;20523;-86
2021/05/13 07:05:42;;;;;;;29.03;19.93;;;14.40;99.90;;;;;;5060832;28;20448;-85
2021/05/13 07:08:09;;;;;;;33.80;18.80;;;14.60;99.90;;;;;;5051488;28;20887;-85
2021/05/13 07:10:36;;;;;;;28.20;16.73;;;14.70;99.90;;;;;;5062101;28;20500;-85
2021/05/13 07:13:02;;;;;;;33.60;19.33;;;14.80;99.90;;;;;;5053960;28;20458;-84
2021/05/13 07:15:29;;;;;;;32.33;20.07;;;15.00;99.90;;;;;;5059341;28;20456;-85
2021/05/13 07:17:55;;;;;;;29.10;16.97;;;15.00;99.90;;;;;;5061864;28;20974;-83
2021/05/13 07:20:23;;;;;;;28.63;18.30;;;15.20;99.90;;;;;;5058240;28;20471;-86
2021/05/13 07:22:50;;;;;;;33.90;17.47;;;15.30;99.90;;;;;;5062466;28;20926;-86
2021/05/13 07:25:16;;;;;;;36.60;20.27;;;15.50;99.90;;;;;;5058340;28;20452;-87
2021/05/13 07:27:44;;;;;;;29.73;17.37;;;15.50;99.90;;;;;;5050746;28;20528;-86
2021/05/13 07:30:11;;;;;;;27.20;16.00;;;15.70;99.90;;;;;;5059659;28;20480;-85
2021/05/13 07:32:38;;;;;;;34.13;16.53;;;15.90;99.90;;;;;;5059653;28;20928;-85
2021/05/13 07:35:05;;;;;;;28.20;16.90;;;16.10;99.90;;;;;;5057578;28;20456;-85
2021/05/13 07:37:32;;;;;;;29.70;17.47;;;16.20;99.90;;;;;;5060361;28;20543;-85
2021/05/13 07:39:59;;;;;;;36.90;20.03;;;16.40;99.90;;;;;;5057782;28;20511;-85
2021/05/13 07:42:26;;;;;;;55.43;49.73;;;16.50;99.90;;;;;;5058417;28;20590;-86
2021/05/13 07:44:53;;;;;;;69.10;62.70;;;16.60;99.90;;;;;;5061708;28;20452;-86
2021/05/13 07:47:21;;;;;;;44.47;36.43;;;16.70;99.90;;;;;;5058861;28;20612;-85
2021/05/13 07:49:47;;;;;;;35.20;19.07;;;16.90;99.90;;;;;;5036573;28;20495;-86
2021/05/13 07:52:14;;;;;;;99.20;91.63;;;16.90;99.90;;;;;;5037526;28;20456;-85
2021/05/13 07:54:41;;;;;;;40.90;32.70;;;17.40;99.90;;;;;;5054541;28;20456;-86
2021/05/13 07:57:08;;;;;;;78.37;72.03;;;17.80;99.90;;;;;;5049481;28;20956;-85
2021/05/13 07:59:34;;;;;;;74.87;68.70;;;18.30;99.90;;;;;;5057210;28;20471;-86
2021/05/13 08:02:01;;;;;;;522.50;486.93;;;18.80;99.90;;;;;;5058090;28;20456;-85
2021/05/13 08:04:27;;;;;;;367.10;337.67;;;19.40;99.90;;;;;;5057745;28;20498;-86
2021/05/13 08:06:53;;;;;;;87.40;56.47;;;20.20;99.90;;;;;;5058301;28;20538;-86
2021/05/13 08:09:20;;;;;;;15.87;11.83;;;21.00;99.90;;;;;;5056361;28;20540;-86
2021/05/13 08:11:47;;;;;;;13.93;11.50;;;21.60;99.90;;;;;;5056679;28;20540;-86
2021/05/13 08:14:14;;;;;;;15.10;10.57;;;22.30;99.90;;;;;;5056715;28;20452;-85
2021/05/13 08:16:40;;;;;;;11.07;9.57;;;23.00;99.90;;;;;;5039779;28;20464;-88
2021/05/13 08:19:07;;;;;;;12.63;8.77;;;23.70;99.90;;;;;;5040898;28;20474;-86
2021/05/13 08:21:35;;;;;;;11.90;8.30;;;23.80;99.90;;;;;;5056196;28;20490;-86
2021/05/13 08:24:01;;;;;;;8.10;6.27;;;23.90;99.90;;;;;;5055589;28;20447;-85
2021/05/13 08:26:28;;;;;;;12.20;8.63;;;24.20;99.90;;;;;;5055123;28;20488;-85
2021/05/13 08:28:56;;;;;;;9.37;8.17;;;24.80;99.90;;;;;;5054506;28;20476;-86
2021/05/13 08:31:22;;;;;;;9.70;7.83;;;24.60;99.90;;;;;;5055013;28;20462;-86
2021/05/13 08:33:48;;;;;;;12.20;6.40;;;25.70;99.90;;;;;;5056182;28;20447;-85
2021/05/13 08:36:14;;;;;;;8.43;6.23;;;26.80;99.90;;;;;;5056749;28;20959;-85
2021/05/13 08:38:41;;;;;;;8.50;6.20;;;28.40;99.90;;;;;;5056333;28;20562;-86
2021/05/13 08:41:08;;;;;;;8.63;6.07;;;28.50;97.60;;;;;;5054192;28;20504;-86
2021/05/13 08:43:34;;;;;;;10.63;7.03;;;27.90;91.10;;;;;;5048581;28;20455;-85
2021/05/13 08:46:02;;;;;;;10.23;7.90;;;28.70;92.00;;;;;;5049727;28;20449;-86
2021/05/13 08:48:28;;;;;;;8.57;7.10;;;29.10;84.80;;;;;;5047462;28;20566;-87
2021/05/13 08:50:56;;;;;;;12.23;10.07;;;29.90;89.40;;;;;;5055026;28;20491;-84
2021/05/13 08:53:22;;;;;;;11.17;8.90;;;28.80;79.30;;;;;;5053581;28;20501;-85
2021/05/13 08:55:49;;;;;;;9.87;7.17;;;29.00;78.20;;;;;;5049398;28;20456;-84
2021/05/13 08:58:15;;;;;;;8.97;6.30;;;29.90;79.70;;;;;;5050902;28;20455;-84
2021/05/13 09:00:50;;;;;;;10.80;8.33;;;30.80;78.40;;;;;;5053348;28;20804;-84
2021/05/13 09:03:31;;;;;;;9.40;7.00;;;31.10;80.20;;;;;;5053740;28;20899;-85
2021/05/13 09:05:58;;;;;;;8.67;7.00;;;31.40;76.00;;;;;;5057643;28;20451;-84
2021/05/13 09:08:25;;;;;;;8.40;6.47;;;32.40;77.80;;;;;;5057513;28;20470;-85
2021/05/13 09:10:51;;;;;;;8.10;5.80;;;33.10;70.40;;;;;;5057298;28;20483;-85
2021/05/13 09:13:26;;;;;;;11.27;9.77;;;33.80;67.80;;;;;;5051824;28;20453;-85
2021/05/13 09:15:53;;;;;;;8.30;6.20;;;33.70;64.00;;;;;;5054373;28;20832;-84
2021/05/13 09:18:31;;;;;;;10.80;6.53;;;33.70;59.50;;;;;;5051080;28;20508;-85
2021/05/13 09:21:04;;;;;;;7.70;6.00;;;33.90;58.50;;;;;;5048635;28;20451;-84
2021/05/13 09:23:30;;;;;;;7.97;4.50;;;31.50;57.60;;;;;;5050722;28;20460;-85
2021/05/13 09:26:08;;;;;;;8.40;6.53;;;29.60;61.40;;;;;;5047501;28;20828;-85
2021/05/13 09:28:35;;;;;;;8.60;6.87;;;27.70;63.50;;;;;;5049798;28;20480;-84
2021/05/13 09:31:02;;;;;;;9.73;6.67;;;;;;;;;;5052508;28;20570;-82
2021/05/13 09:33:30;;;;;;;9.87;6.57;;;25.30;69.80;;;;;;5049826;28;20536;-83
2021/05/13 09:35:57;;;;;;;7.70;5.50;;;24.40;67.20;;;;;;5056778;28;20905;-84
2021/05/13 09:38:32;;;;;;;9.73;5.60;;;23.70;74.60;;;;;;5056739;28;20474;-84
2021/05/13 09:41:00;;;;;;;8.70;5.70;;;23.30;78.50;;;;;;5058398;28;20533;-82
2021/05/13 09:43:31;;;;;;;7.90;5.57;;;23.70;84.10;;;;;;5059021;28;20448;-84
2021/05/13 09:45:59;;;;;;;7.20;4.67;;;26.00;73.60;;;;;;5052695;28;20452;-84
2021/05/13 09:48:38;;;;;;;8.10;4.00;;;28.70;70.40;;;;;;5058584;28;20480;-80
2021/05/13 09:51:21;;;;;;;6.73;4.00;;;30.50;64.30;;;;;;5035545;28;20539;-85
2021/05/13 09:53:49;;;;;;;9.43;4.80;;;32.40;63.30;;;;;;5049623;28;20494;-85
2021/05/13 09:56:27;;;;;;;7.50;3.67;;;33.80;56.50;;;;;;5053326;28;20961;-84
2021/05/13 09:58:54;;;;;;;5.80;2.90;;;34.20;54.10;;;;;;5057137;28;20503;-84
2021/05/13 10:01:21;;;;;;;5.80;2.67;;;35.50;55.50;;;;;;5051191;28;21107;-84
2021/05/13 10:03:49;;;;;;;6.00;2.80;;;36.80;51.70;;;;;;5055324;28;20539;-86
2021/05/13 10:06:15;;;;;;;6.60;2.70;;;35.80;49.30;;;;;;5049267;28;20462;-84
2021/05/13 10:08:43;;;;;;;5.40;2.07;;;33.70;47.90;;;;;;5054100;28;21015;-84
2021/05/13 10:11:10;;;;;;;5.50;2.87;;;31.70;50.00;;;;;;5033900;28;20480;-84
2021/05/13 10:13:36;;;;;;;6.30;3.53;;;29.80;51.70;;;;;;5041655;28;20551;-86
2021/05/13 10:16:04;;;;;;;8.60;3.20;;;28.00;53.80;;;;;;5050742;28;20474;-86
2021/05/13 10:18:40;;;;;;;6.90;3.50;;;28.50;61.10;;;;;;5052148;28;20896;-87
2021/05/13 10:21:13;;;;;;;6.83;3.80;;;30.10;52.10;;;;;;5048901;28;20881;-86
2021/05/13 10:23:42;;;;;;;5.83;3.23;;;32.50;51.70;;;;;;5047290;28;20535;-86
2021/05/13 10:26:17;;;;;;;8.70;3.50;;;33.20;50.30;;;;;;5047573;28;20516;-87
2021/05/13 10:28:43;;;;;;;6.07;2.73;;;34.20;50.10;;;;;;5050630;28;20586;-86
2021/05/13 10:31:09;;;;;;;6.30;2.80;;;35.20;51.00;;;;;;5050413;28;20958;-83
2021/05/13 10:33:47;;;;;;;6.17;2.43;;;35.40;51.10;;;;;;5049889;28;20871;-86
2021/05/13 10:36:20;;;;;;;5.93;2.77;;;35.40;48.90;;;;;;5047104;28;20455;-85
2021/05/13 10:38:51;;;;;;;6.37;2.70;;;33.40;48.60;;;;;;5050723;28;20496;-86
2021/05/13 10:41:39;;;;;;;7.70;2.73;;;31.60;50.70;;;;;;5049819;28;20501;-85
2021/05/13 10:44:37;;;;;;;6.23;2.90;;;29.60;49.60;;;;;;5048834;28;20444;-84
2021/05/13 10:47:06;;;;;;;6.67;2.60;;;28.30;55.00;;;;;;5052187;28;20503;-84
2021/05/13 10:49:45;;;;;;;5.20;2.70;;;27.20;53.20;;;;;;5051951;28;20555;-84
2021/05/13 10:52:35;;;;;;;10.30;2.80;;;26.10;54.80;;;;;;5049283;28;20459;-85
2021/05/13 10:55:05;;;;;;;8.30;2.83;;;25.20;55.80;;;;;;5053991;28;21001;-84
2021/05/13 10:57:50;;;;;;;5.73;2.40;;;26.40;62.90;;;;;;5054539;28;20810;-85
2021/05/13 11:00:29;;;;;;;6.00;2.37;;;29.70;58.90;;;;;;5057191;28;20463;-84
2021/05/13 11:02:57;;;;;;;5.37;2.47;;;31.90;55.60;;;;;;5055477;28;20467;-87
2021/05/13 11:05:42;;;;;;;6.53;2.90;;;32.70;51.70;;;;;;5053472;28;20463;-85
2021/05/13 11:08:29;;;;;;;5.00;2.20;;;32.70;49.10;;;;;;5060928;28;20810;-84
2021/05/13 11:11:02;;;;;;;5.20;2.37;;;32.60;51.20;;;;;;5053980;28;20555;-86
2021/05/13 11:13:45;;;;;;;6.27;3.03;;;33.40;47.50;;;;;;5053098;28;20453;-84
2021/05/13 11:16:56;;;;;;;6.57;3.13;;;32.20;48.80;;;;;;5045376;28;21006;-86
2021/05/13 11:19:29;;;;;;;4.70;1.90;;;34.50;47.60;;;;;;5051127;28;20486;-86
2021/05/13 11:22:04;;;;;;;5.33;1.70;;;36.60;47.50;;;;;;5052941;28;20459;-86
2021/05/13 11:24:42;;;;;;;4.60;1.70;;;36.50;46.10;;;;;;5056258;28;20484;-84
2021/05/13 11:27:10;;;;;;;5.50;1.93;;;35.60;45.90;;;;;;5056490;28;20906;-85
2021/05/13 11:29:49;;;;;;;6.13;2.00;;;35.20;44.40;;;;;;5056790;28;20483;-85
2021/05/13 11:32:16;;;;;;;5.60;1.70;;;33.50;44.30;;;;;;5060542;28;20480;-84
2021/05/13 11:34:46;;;;;;;4.77;2.07;;;34.20;45.80;;;;;;5058493;28;20471;-84
2021/05/13 11:37:36;;;;;;;6.00;2.00;;;34.70;46.60;;;;;;5059018;28;20509;-84
2021/05/13 11:40:27;;;;;;;5.23;1.33;;;36.20;43.40;;;;;;5058525;28;20471;-86
2021/05/13 11:43:15;;;;;;;5.10;1.57;;;38.20;43.60;;;;;;5053916;28;20551;-84
2021/05/13 11:45:42;;;;;;;4.87;1.80;;;39.50;42.80;;;;;;5056323;28;20459;-84
2021/05/13 11:48:32;;;;;;;7.30;2.20;;;40.30;40.50;;;;;;5059633;28;20447;-84
2021/05/13 11:51:01;;;;;;;7.00;1.63;;;41.00;42.10;;;;;;5050349;28;20471;-84
2021/05/13 11:56:06;;;;;;;4.27;1.83;;;38.30;38.90;;;;;;5054566;28;20468;-87
2021/05/13 11:58:52;;;;;;;5.83;2.63;;;36.30;41.40;;;;;;5057020;28;20524;-86
2021/05/13 12:01:36;;;;;;;7.00;3.80;;;34.60;42.80;;;;;;5057474;28;20884;-87
2021/05/13 12:04:05;;;;;;;7.10;3.10;;;36.10;44.00;;;;;;5055329;28;20495;-86
2021/05/13 12:06:47;;;;;;;7.47;3.77;;;38.20;42.80;;;;;;5060892;28;20499;-86
2021/05/13 12:09:15;;;;;;;7.07;3.30;;;40.20;43.90;;;;;;5060616;28;20944;-86
2021/05/13 12:11:42;;;;;;;6.23;3.90;;;41.30;42.00;;;;;;5057158;28;20440;-85
2021/05/13 12:14:10;;;;;;;5.73;3.20;;;42.10;38.70;;;;;;5062488;28;20538;-86
2021/05/13 12:16:36;;;;;;;6.47;4.07;;;38.30;40.00;;;;;;5061001;28;20455;-85
2021/05/13 12:19:05;;;;;;;7.60;4.10;;;34.80;40.60;;;;;;5058054;28;21040;-86
2021/05/13 12:21:34;;;;;;;9.53;5.17;;;32.70;43.20;;;;;;5057902;28;20558;-86
2021/05/13 12:24:01;;;;;;;7.53;4.60;;;31.30;44.80;;;;;;5062762;28;20525;-86
2021/05/13 12:26:31;;;;;;;7.63;4.20;;;29.80;46.60;;;;;;5061484;28;20675;-87
2021/05/13 12:28:59;;;;;;;5.90;3.57;;;28.40;48.20;;;;;;5062144;28;20463;-86
2021/05/13 12:31:30;;;;;;;9.17;5.20;;;27.60;50.20;;;;;;5058486;28;20495;-86
2021/05/13 12:33:58;;;;;;;8.40;4.73;;;26.90;51.30;;;;;;5054486;28;20522;-86
2021/05/13 12:36:24;;;;;;;9.20;5.10;;;26.80;52.20;;;;;;5061100;28;20452;-86
2021/05/13 12:38:51;;;;;;;8.63;4.77;;;27.30;53.60;;;;;;5060205;28;20467;-85
2021/05/13 12:41:20;;;;;;;7.23;3.50;;;26.90;52.60;;;;;;5058175;28;20549;-86
2021/05/13 12:43:48;;;;;;;5.53;3.33;;;26.60;53.30;;;;;;5059910;28;20454;-85
2021/05/13 12:46:23;;;;;;;8.03;4.60;;;26.40;55.30;;;;;;5067922;28;20502;-88